CMA CGM Castilla — V7LZ7 — position and weather

sailwx.info

Track history (hours):
 
Tides and Currents Weather Stations Pressure Air Temp Water Temp Dewpoint Dewpoint Depression Visibility Wind Speed Wind Dir Waves Ship Positions

CMA CGM Castilla

Last reported at 2015-Jul-24 04:33 UTC. Time now 2015-Aug-05 04:23 UTC.
Position N 35°55' W 009°02'.
Warning: this ship's position is 11 days out of date.

Length 194 m; beam 28.2 m; draft 11.5 m.

Type: Ship (hazmat cat A). MMSI: 538090285.

Date/timePositionNaut miles runAvg speedWind from/ knotsBaromVisibWave heightAir tempDewpointWater temp
2015-Jul-24 04:33N 35°55' W 009°02'5818.4
2015-Jul-24 01:23N 35°57' W 007°51'1618.6
2015-Jul-24 00:33N 35°57' W 007°31'2718.4
2015-Jul-23 23:04N 35°57' W 006°58'918.3
2015-Jul-23 22:34N 35°57' W 006°46'1918.4
2015-Jul-23 21:33N 35°57' W 006°23'2017.8
2015-Jul-23 20:25N 35°57' W 005°58'1112.6
2015-Jul-23 19:33N 35°57' W 005°45'187 7.1
2015-Jul-22 17:13N 36°35' W 001°58'2815.7
2015-Jul-22 15:27N 36°54' W 001°33'1816.1
2015-Jul-22 14:20N 37°06' W 001°16'1315.9
2015-Jul-22 13:29N 37°14' W 001°03'1516.0
2015-Jul-22 12:33N 37°24' W 000°48'1616.5
2015-Jul-22 11:33N 37°35' W 000°33'1716.5
2015-Jul-22 10:33N 37°49' W 000°22'2216.3
2015-Jul-22 09:12N 38°08' W 000°07'1116.5
2015-Jul-22 08:32N 38°17' E 000°01'2016.9
2015-Jul-22 07:20N 38°34' E 000°15'1215.6
2015-Jul-22 06:33N 38°44' E 000°23'1515.2
2015-Jul-22 05:32N 38°58' E 000°13'3315.5
2015-Jul-22 03:26N 39°23' W 000°14'6 6.3
2015-Jul-22 02:31N 39°27' W 000°19'0 0.0
2015-Jul-22 01:31N 39°27' W 000°19'0 0.0
2015-Jul-22 00:31N 39°27' W 000°19'0 0.0
2015-Jul-21 23:31N 39°27' W 000°19'0 0.0
2015-Jul-21 22:31N 39°27' W 000°19'0 0.0
2015-Jul-21 21:31N 39°27' W 000°19'0 0.0
2015-Jul-21 20:31N 39°27' W 000°19'0 0.0
2015-Jul-21 19:31N 39°27' W 000°19'0 0.0
2015-Jul-21 18:31N 39°27' W 000°19'0 0.0
2015-Jul-21 17:31N 39°27' W 000°19'0 0.0
2015-Jul-21 16:31N 39°27' W 000°19'0 0.0
2015-Jul-21 15:31N 39°27' W 000°19'0 0.0
2015-Jul-21 14:31N 39°27' W 000°19'0 0.0
2015-Jul-21 13:31N 39°27' W 000°19'0 0.0
2015-Jul-21 12:31N 39°27' W 000°19'0 0.0
2015-Jul-21 11:31N 39°27' W 000°19'0 0.0
2015-Jul-21 10:28N 39°27' W 000°19'0 0.0
2015-Jul-21 09:31N 39°27' W 000°19'0 0.0
2015-Jul-21 08:31N 39°27' W 000°19'0 0.0
2015-Jul-21 07:31N 39°27' W 000°19'3 3.5
2015-Jul-21 06:33N 39°26' W 000°15'3315.0
2015-Jul-21 04:22N 39°48' E 000°16'1518.2
2015-Jul-21 03:33N 39°58' E 000°31'1818.2
2015-Jul-21 02:33N 40°10' E 000°48'1818.4
2015-Jul-21 01:33N 40°22' E 001°07'1918.5
2015-Jul-21 00:33N 40°34' E 001°25'1918.5
2015-Jul-20 23:33N 40°48' E 001°41'1918.6
2015-Jul-20 22:33N 41°03' E 001°56'1818.3
2015-Jul-20 21:33N 41°18' E 002°11'4 3.5
2015-Jul-20 20:31N 41°21' E 002°10'0 0.0
2015-Jul-20 19:25N 41°21' E 002°10'0 0.0
2015-Jul-20 14:31N 41°21' E 002°10'0 0.0
2015-Jul-20 13:31N 41°21' E 002°10'0 0.0
2015-Jul-20 12:25N 41°21' E 002°10'0 0.0
2015-Jul-20 11:13N 41°21' E 002°10'0 0.0
2015-Jul-20 10:31N 41°21' E 002°10'0 0.0
2015-Jul-20 06:31N 41°21' E 002°10'0 0.1
2015-Jul-20 05:31N 41°21' E 002°10'5 5.5
2015-Jul-20 04:33N 41°17' E 002°15'1312.1
2015-Jul-20 03:31N 41°23' E 002°30'1515.3
2015-Jul-20 02:33N 41°29' E 002°48'2115.3
2015-Jul-20 01:11N 41°39' E 003°12'1715.7
2015-Jul-20 00:06N 41°48' E 003°32'916.4
2015-Jul-19 23:33N 41°52' E 003°43'1615.6
2015-Jul-19 22:33N 41°59' E 004°02'1515.0
2015-Jul-19 21:33N 42°05' E 004°20'1515.0
2015-Jul-19 20:33N 42°12' E 004°38'3515.0
2015-Jul-19 18:15N 42°27' E 005°20'1015.0
2015-Jul-19 17:33N 42°32' E 005°33'6 2.7
2015-Jul-19 15:10N 42°34' E 005°41'0 0.3
2015-Jul-19 14:18N 42°33' E 005°41'2 0.7
2015-Jul-19 11:05N 42°33' E 005°38'1 0.5
2015-Jul-19 09:33N 42°32' E 005°37'1 0.5
2015-Jul-19 07:25N 42°31' E 005°36'9 4.9
2015-Jul-19 05:32N 42°38' E 005°45'1815.6
2015-Jul-19 04:22N 42°48' E 006°06'6015.7
2015-Jul-19 00:33N 43°21' E 007°14'1515.5
2015-Jul-18 23:33N 43°31' E 007°31'1615.7
2015-Jul-18 22:33N 43°40' E 007°49'1615.7
2015-Jul-18 21:33N 43°49' E 008°06'1514.8
2015-Jul-18 20:32N 43°59' E 008°23'1515.1
2015-Jul-18 19:33N 44°09' E 008°37'1515.4
2015-Jul-18 18:33N 44°18' E 008°55'6 6.0
2015-Jul-18 17:31N 44°24' E 008°54'0 0.0
2015-Jul-18 16:31N 44°24' E 008°54'0 0.0
2015-Jul-18 15:28N 44°24' E 008°54'0 0.0
2015-Jul-18 14:28N 44°24' E 008°54'0 0.0
2015-Jul-18 13:31N 44°24' E 008°54'0 0.0
2015-Jul-18 12:31N 44°24' E 008°54'0 0.0
2015-Jul-18 11:31N 44°24' E 008°54'0 0.0
2015-Jul-18 10:28N 44°24' E 008°54'0 0.0
2015-Jul-18 09:33N 44°24' E 008°54'0 0.0
2015-Jul-18 08:33N 44°24' E 008°54'0 0.0
2015-Jul-18 07:33N 44°24' E 008°54'0 0.0
2015-Jul-18 06:33N 44°24' E 008°54'0 0.0
2015-Jul-18 05:33N 44°24' E 008°54'0 0.2
2015-Jul-18 04:33N 44°24' E 008°54'9 9.0
2015-Jul-18 03:33N 44°18' E 009°03'1515.1
2015-Jul-18 02:33N 44°06' E 009°16'1514.8
2015-Jul-18 01:34N 43°54' E 009°28'1211.5
2015-Jul-18 00:33N 43°45' E 009°38'1111.4
2015-Jul-17 23:33N 43°36' E 009°47'1111.0
2015-Jul-17 22:34N 43°31' E 010°01'1010.4
2015-Jul-17 21:33N 43°32' E 010°15'4 3.6
2015-Jul-17 20:31N 43°34' E 010°18'0 0.0
2015-Jul-17 19:31N 43°34' E 010°18'0 0.0
2015-Jul-17 18:31N 43°34' E 010°18'0 0.0
2015-Jul-17 17:31N 43°34' E 010°18'0 0.0
2015-Jul-17 16:28N 43°34' E 010°18'0 0.0
2015-Jul-17 15:31N 43°34' E 010°18'0 0.0
2015-Jul-17 14:31N 43°34' E 010°18'0 0.0
2015-Jul-17 13:31N 43°34' E 010°18'0 0.0
2015-Jul-17 12:31N 43°34' E 010°18'0 0.0
2015-Jul-17 11:19N 43°34' E 010°18'0 0.0
2015-Jul-17 10:31N 43°34' E 010°18'0 0.0
2015-Jul-17 09:33N 43°34' E 010°18'3 3.4
2015-Jul-17 08:33N 43°32' E 010°16'8 8.5
2015-Jul-17 07:33N 43°25' E 010°08'1413.7
2015-Jul-17 06:34N 43°17' E 009°53'1615.1
2015-Jul-17 05:29N 43°10' E 009°33'1414.8
2015-Jul-17 04:33N 43°04' E 009°16'1514.8
2015-Jul-17 03:34N 42°56' E 008°59'1515.0
2015-Jul-17 02:32N 42°47' E 008°43'1414.5
2015-Jul-17 01:34N 42°36' E 008°31'1515.1
2015-Jul-17 00:33N 42°25' E 008°16'1515.0
2015-Jul-16 23:33N 42°15' E 008°01'1414.4
2015-Jul-16 22:33N 42°05' E 007°46'1515.1
2015-Jul-16 21:33N 41°55' E 007°31'1515.0
2015-Jul-16 20:33N 41°45' E 007°16'1514.9
2015-Jul-16 19:33N 41°36' E 007°01'1614.7
2015-Jul-16 18:27N 41°24' E 006°45'2814.8
2015-Jul-16 16:33N 41°06' E 006°18'1714.9
2015-Jul-16 15:23N 40°54' E 006°00'9 3.0
2015-Jul-16 12:33N 40°49' E 005°52'1 0.6
2015-Jul-16 11:33N 40°49' E 005°52'9 9.2
2015-Jul-16 10:34N 40°42' E 005°44'1514.9
2015-Jul-16 09:33N 40°32' E 005°30'2014.4
2015-Jul-16 08:10N 40°19' E 005°09'1014.6
2015-Jul-16 07:27N 40°12' E 004°59'2914.7
2015-Jul-16 05:27N 39°52' E 004°31'1314.8
2015-Jul-16 04:33N 39°44' E 004°18'1514.9
2015-Jul-16 03:33N 39°35' E 004°02'1514.8
2015-Jul-16 02:33N 39°27' E 003°46'1514.8
2015-Jul-16 01:33N 39°19' E 003°30'1414.5
2015-Jul-16 00:33N 39°11' E 003°14'1414.5
2015-Jul-15 23:33N 39°03' E 002°59'1414.5
2015-Jul-15 22:33N 38°55' E 002°43'1514.7
2015-Jul-15 21:33N 38°47' E 002°28'1514.7
2015-Jul-15 20:33N 38°39' E 002°11'1514.9
2015-Jul-15 19:33N 38°30' E 001°56'1515.3
2015-Jul-15 18:33N 38°22' E 001°40'1615.1
2015-Jul-15 17:29N 38°13' E 001°22'1414.9
2015-Jul-15 16:33N 38°05' E 001°08'1515.0
2015-Jul-15 15:33N 37°57' E 000°52'1514.9
2015-Jul-15 14:33N 37°49' E 000°36'1514.7
2015-Jul-15 13:33N 37°41' E 000°21'1514.6
2015-Jul-15 12:32N 37°32' E 000°05'1514.9
2015-Jul-15 11:32N 37°24' W 000°10'1414.4
2015-Jul-15 10:33N 37°16' W 000°25'1414.5
2015-Jul-15 09:33N 37°08' W 000°40'1414.5
2015-Jul-15 08:33N 37°00' W 000°55'1514.1
2015-Jul-15 07:30N 36°52' W 001°11'1414.5
2015-Jul-15 06:33N 36°44' W 001°25'1514.6
2015-Jul-15 05:33N 36°36' W 001°40'1414.4
2015-Jul-15 04:33N 36°28' W 001°55'1414.1
2015-Jul-15 03:33N 36°22' W 002°11'1514.4
2015-Jul-15 02:33N 36°20' W 002°29'1414.3
2015-Jul-15 01:33N 36°18' W 002°46'1514.5
2015-Jul-15 00:33N 36°15' W 003°04'1514.6
2015-Jul-14 23:33N 36°13' W 003°22'107 6.7
2015-Jul-14 07:30N 35°55' W 005°33'  
Track history (hours):
 
Tides and Currents Weather Stations Pressure Air Temp Water Temp Dewpoint Dewpoint Depression Visibility Wind Speed Wind Dir Waves Ship Positions

CMA CGM Castilla

Last reported at 2015-Jul-24 04:33 UTC. Time now 2015-Aug-05 04:23 UTC.
Position N 35°55' W 009°02'.
Warning: this ship's position is 11 days out of date.

Length 194 m; beam 28.2 m; draft 11.5 m.

Type: Ship (hazmat cat A). MMSI: 538090285.

Date/timePositionNaut miles runAvg speedWind from/ knotsBaromVisibWave heightAir tempDewpointWater temp
2015-Jul-24 04:33N 35°55' W 009°02'5818.4
2015-Jul-24 01:23N 35°57' W 007°51'1618.6
2015-Jul-24 00:33N 35°57' W 007°31'2718.4
2015-Jul-23 23:04N 35°57' W 006°58'918.3
2015-Jul-23 22:34N 35°57' W 006°46'1918.4
2015-Jul-23 21:33N 35°57' W 006°23'2017.8
2015-Jul-23 20:25N 35°57' W 005°58'1112.6
2015-Jul-23 19:33N 35°57' W 005°45'187 7.1
2015-Jul-22 17:13N 36°35' W 001°58'2815.7
2015-Jul-22 15:27N 36°54' W 001°33'1816.1
2015-Jul-22 14:20N 37°06' W 001°16'1315.9
2015-Jul-22 13:29N 37°14' W 001°03'1516.0
2015-Jul-22 12:33N 37°24' W 000°48'1616.5
2015-Jul-22 11:33N 37°35' W 000°33'1716.5
2015-Jul-22 10:33N 37°49' W 000°22'2216.3
2015-Jul-22 09:12N 38°08' W 000°07'1116.5
2015-Jul-22 08:32N 38°17' E 000°01'2016.9
2015-Jul-22 07:20N 38°34' E 000°15'1215.6
2015-Jul-22 06:33N 38°44' E 000°23'1515.2
2015-Jul-22 05:32N 38°58' E 000°13'3315.5
2015-Jul-22 03:26N 39°23' W 000°14'6 6.3
2015-Jul-22 02:31N 39°27' W 000°19'0 0.0
2015-Jul-22 01:31N 39°27' W 000°19'0 0.0
2015-Jul-22 00:31N 39°27' W 000°19'0 0.0
2015-Jul-21 23:31N 39°27' W 000°19'0 0.0
2015-Jul-21 22:31N 39°27' W 000°19'0 0.0
2015-Jul-21 21:31N 39°27' W 000°19'0 0.0
2015-Jul-21 20:31N 39°27' W 000°19'0 0.0
2015-Jul-21 19:31N 39°27' W 000°19'0 0.0
2015-Jul-21 18:31N 39°27' W 000°19'0 0.0
2015-Jul-21 17:31N 39°27' W 000°19'0 0.0
2015-Jul-21 16:31N 39°27' W 000°19'0 0.0
2015-Jul-21 15:31N 39°27' W 000°19'0 0.0
2015-Jul-21 14:31N 39°27' W 000°19'0 0.0
2015-Jul-21 13:31N 39°27' W 000°19'0 0.0
2015-Jul-21 12:31N 39°27' W 000°19'0 0.0
2015-Jul-21 11:31N 39°27' W 000°19'0 0.0
2015-Jul-21 10:28N 39°27' W 000°19'0 0.0
2015-Jul-21 09:31N 39°27' W 000°19'0 0.0
2015-Jul-21 08:31N 39°27' W 000°19'0 0.0
2015-Jul-21 07:31N 39°27' W 000°19'3 3.5
2015-Jul-21 06:33N 39°26' W 000°15'3315.0
2015-Jul-21 04:22N 39°48' E 000°16'1518.2
2015-Jul-21 03:33N 39°58' E 000°31'1818.2
2015-Jul-21 02:33N 40°10' E 000°48'1818.4
2015-Jul-21 01:33N 40°22' E 001°07'1918.5
2015-Jul-21 00:33N 40°34' E 001°25'1918.5
2015-Jul-20 23:33N 40°48' E 001°41'1918.6
2015-Jul-20 22:33N 41°03' E 001°56'1818.3
2015-Jul-20 21:33N 41°18' E 002°11'4 3.5
2015-Jul-20 20:31N 41°21' E 002°10'0 0.0
2015-Jul-20 19:25N 41°21' E 002°10'0 0.0
2015-Jul-20 14:31N 41°21' E 002°10'0 0.0
2015-Jul-20 13:31N 41°21' E 002°10'0 0.0
2015-Jul-20 12:25N 41°21' E 002°10'0 0.0
2015-Jul-20 11:13N 41°21' E 002°10'0 0.0
2015-Jul-20 10:31N 41°21' E 002°10'0 0.0
2015-Jul-20 06:31N 41°21' E 002°10'0 0.1
2015-Jul-20 05:31N 41°21' E 002°10'5 5.5
2015-Jul-20 04:33N 41°17' E 002°15'1312.1
2015-Jul-20 03:31N 41°23' E 002°30'1515.3
2015-Jul-20 02:33N 41°29' E 002°48'2115.3
2015-Jul-20 01:11N 41°39' E 003°12'1715.7
2015-Jul-20 00:06N 41°48' E 003°32'916.4
2015-Jul-19 23:33N 41°52' E 003°43'1615.6
2015-Jul-19 22:33N 41°59' E 004°02'1515.0
2015-Jul-19 21:33N 42°05' E 004°20'1515.0
2015-Jul-19 20:33N 42°12' E 004°38'3515.0
2015-Jul-19 18:15N 42°27' E 005°20'1015.0
2015-Jul-19 17:33N 42°32' E 005°33'6 2.7
2015-Jul-19 15:10N 42°34' E 005°41'0 0.3
2015-Jul-19 14:18N 42°33' E 005°41'2 0.7
2015-Jul-19 11:05N 42°33' E 005°38'1 0.5
2015-Jul-19 09:33N 42°32' E 005°37'1 0.5
2015-Jul-19 07:25N 42°31' E 005°36'9 4.9
2015-Jul-19 05:32N 42°38' E 005°45'1815.6
2015-Jul-19 04:22N 42°48' E 006°06'6015.7
2015-Jul-19 00:33N 43°21' E 007°14'1515.5
2015-Jul-18 23:33N 43°31' E 007°31'1615.7
2015-Jul-18 22:33N 43°40' E 007°49'1615.7
2015-Jul-18 21:33N 43°49' E 008°06'1514.8
2015-Jul-18 20:32N 43°59' E 008°23'1515.1
2015-Jul-18 19:33N 44°09' E 008°37'1515.4
2015-Jul-18 18:33N 44°18' E 008°55'6 6.0
2015-Jul-18 17:31N 44°24' E 008°54'0 0.0
2015-Jul-18 16:31N 44°24' E 008°54'0 0.0
2015-Jul-18 15:28N 44°24' E 008°54'0 0.0
2015-Jul-18 14:28N 44°24' E 008°54'0 0.0
2015-Jul-18 13:31N 44°24' E 008°54'0 0.0
2015-Jul-18 12:31N 44°24' E 008°54'0 0.0
2015-Jul-18 11:31N 44°24' E 008°54'0 0.0
2015-Jul-18 10:28N 44°24' E 008°54'0 0.0
2015-Jul-18 09:33N 44°24' E 008°54'0 0.0
2015-Jul-18 08:33N 44°24' E 008°54'0 0.0
2015-Jul-18 07:33N 44°24' E 008°54'0 0.0
2015-Jul-18 06:33N 44°24' E 008°54'0 0.0
2015-Jul-18 05:33N 44°24' E 008°54'0 0.2
2015-Jul-18 04:33N 44°24' E 008°54'9 9.0
2015-Jul-18 03:33N 44°18' E 009°03'1515.1
2015-Jul-18 02:33N 44°06' E 009°16'1514.8
2015-Jul-18 01:34N 43°54' E 009°28'1211.5
2015-Jul-18 00:33N 43°45' E 009°38'1111.4
2015-Jul-17 23:33N 43°36' E 009°47'1111.0
2015-Jul-17 22:34N 43°31' E 010°01'1010.4
2015-Jul-17 21:33N 43°32' E 010°15'4 3.6
2015-Jul-17 20:31N 43°34' E 010°18'0 0.0
2015-Jul-17 19:31N 43°34' E 010°18'0 0.0
2015-Jul-17 18:31N 43°34' E 010°18'0 0.0
2015-Jul-17 17:31N 43°34' E 010°18'0 0.0
2015-Jul-17 16:28N 43°34' E 010°18'0 0.0
2015-Jul-17 15:31N 43°34' E 010°18'0 0.0
2015-Jul-17 14:31N 43°34' E 010°18'0 0.0
2015-Jul-17 13:31N 43°34' E 010°18'0 0.0
2015-Jul-17 12:31N 43°34' E 010°18'0 0.0
2015-Jul-17 11:19N 43°34' E 010°18'0 0.0
2015-Jul-17 10:31N 43°34' E 010°18'0 0.0
2015-Jul-17 09:33N 43°34' E 010°18'3 3.4
2015-Jul-17 08:33N 43°32' E 010°16'8 8.5
2015-Jul-17 07:33N 43°25' E 010°08'1413.7
2015-Jul-17 06:34N 43°17' E 009°53'1615.1
2015-Jul-17 05:29N 43°10' E 009°33'1414.8
2015-Jul-17 04:33N 43°04' E 009°16'1514.8
2015-Jul-17 03:34N 42°56' E 008°59'1515.0
2015-Jul-17 02:32N 42°47' E 008°43'1414.5
2015-Jul-17 01:34N 42°36' E 008°31'1515.1
2015-Jul-17 00:33N 42°25' E 008°16'1515.0
2015-Jul-16 23:33N 42°15' E 008°01'1414.4
2015-Jul-16 22:33N 42°05' E 007°46'1515.1
2015-Jul-16 21:33N 41°55' E 007°31'1515.0
2015-Jul-16 20:33N 41°45' E 007°16'1514.9
2015-Jul-16 19:33N 41°36' E 007°01'1614.7
2015-Jul-16 18:27N 41°24' E 006°45'2814.8
2015-Jul-16 16:33N 41°06' E 006°18'1714.9
2015-Jul-16 15:23N 40°54' E 006°00'9 3.0
2015-Jul-16 12:33N 40°49' E 005°52'1 0.6
2015-Jul-16 11:33N 40°49' E 005°52'9 9.2
2015-Jul-16 10:34N 40°42' E 005°44'1514.9
2015-Jul-16 09:33N 40°32' E 005°30'2014.4
2015-Jul-16 08:10N 40°19' E 005°09'1014.6
2015-Jul-16 07:27N 40°12' E 004°59'2914.7
2015-Jul-16 05:27N 39°52' E 004°31'1314.8
2015-Jul-16 04:33N 39°44' E 004°18'1514.9
2015-Jul-16 03:33N 39°35' E 004°02'1514.8
2015-Jul-16 02:33N 39°27' E 003°46'1514.8
2015-Jul-16 01:33N 39°19' E 003°30'1414.5
2015-Jul-16 00:33N 39°11' E 003°14'1414.5
2015-Jul-15 23:33N 39°03' E 002°59'1414.5
2015-Jul-15 22:33N 38°55' E 002°43'1514.7
2015-Jul-15 21:33N 38°47' E 002°28'1514.7
2015-Jul-15 20:33N 38°39' E 002°11'1514.9
2015-Jul-15 19:33N 38°30' E 001°56'1515.3
2015-Jul-15 18:33N 38°22' E 001°40'1615.1
2015-Jul-15 17:29N 38°13' E 001°22'1414.9
2015-Jul-15 16:33N 38°05' E 001°08'1515.0
2015-Jul-15 15:33N 37°57' E 000°52'1514.9
2015-Jul-15 14:33N 37°49' E 000°36'1514.7
2015-Jul-15 13:33N 37°41' E 000°21'1514.6
2015-Jul-15 12:32N 37°32' E 000°05'1514.9
2015-Jul-15 11:32N 37°24' W 000°10'1414.4
2015-Jul-15 10:33N 37°16' W 000°25'1414.5
2015-Jul-15 09:33N 37°08' W 000°40'1414.5
2015-Jul-15 08:33N 37°00' W 000°55'1514.1
2015-Jul-15 07:30N 36°52' W 001°11'1414.5
2015-Jul-15 06:33N 36°44' W 001°25'1514.6
2015-Jul-15 05:33N 36°36' W 001°40'1414.4
2015-Jul-15 04:33N 36°28' W 001°55'1414.1
2015-Jul-15 03:33N 36°22' W 002°11'1514.4
2015-Jul-15 02:33N 36°20' W 002°29'1414.3
2015-Jul-15 01:33N 36°18' W 002°46'1514.5
2015-Jul-15 00:33N 36°15' W 003°04'1514.6
2015-Jul-14 23:33N 36°13' W 003°22'107 6.7
2015-Jul-14 07:30N 35°55' W 005°33'  

Dump ship's entire track history